sensor_id;sensor_type;location;lat;lon;timestamp;temperature;humidity
43346;DHT22;28937;51.160;4.146;2023-01-26T00:03:37;7.10;95.00
43346;DHT22;28937;51.160;4.146;2023-01-26T00:06:08;7.10;94.90
43346;DHT22;28937;51.160;4.146;2023-01-26T00:08:38;7.10;94.80
43346;DHT22;28937;51.160;4.146;2023-01-26T00:11:05;7.10;94.90
43346;DHT22;28937;51.160;4.146;2023-01-26T00:13:31;7.10;95.00
43346;DHT22;28937;51.160;4.146;2023-01-26T00:15:56;7.10;95.00
43346;DHT22;28937;51.160;4.146;2023-01-26T00:18:22;7.00;95.00
43346;DHT22;28937;51.160;4.146;2023-01-26T00:20:47;7.10;94.90
43346;DHT22;28937;51.160;4.146;2023-01-26T00:23:14;7.00;94.90
43346;DHT22;28937;51.160;4.146;2023-01-26T00:25:40;7.10;95.00
43346;DHT22;28937;51.160;4.146;2023-01-26T00:28:05;7.10;95.10
43346;DHT22;28937;51.160;4.146;2023-01-26T00:30:31;7.00;95.10
43346;DHT22;28937;51.160;4.146;2023-01-26T00:32:57;7.00;95.00
43346;DHT22;28937;51.160;4.146;2023-01-26T00:35:23;7.00;95.20
43346;DHT22;28937;51.160;4.146;2023-01-26T00:37:49;7.10;95.10
43346;DHT22;28937;51.160;4.146;2023-01-26T00:40:14;7.00;95.10
43346;DHT22;28937;51.160;4.146;2023-01-26T00:42:40;6.90;95.20
43346;DHT22;28937;51.160;4.146;2023-01-26T00:45:06;6.90;95.20
43346;DHT22;28937;51.160;4.146;2023-01-26T00:47:31;7.00;95.20
43346;DHT22;28937;51.160;4.146;2023-01-26T00:49:57;7.00;95.20
43346;DHT22;28937;51.160;4.146;2023-01-26T00:52:22;7.00;95.10
43346;DHT22;28937;51.160;4.146;2023-01-26T00:54:48;7.00;95.20
43346;DHT22;28937;51.160;4.146;2023-01-26T00:57:13;6.90;95.30
43346;DHT22;28937;51.160;4.146;2023-01-26T00:59:39;6.90;95.30
43346;DHT22;28937;51.160;4.146;2023-01-26T01:02:05;6.90;95.40
43346;DHT22;28937;51.160;4.146;2023-01-26T01:04:30;7.00;95.20
43346;DHT22;28937;51.160;4.146;2023-01-26T01:06:57;6.90;95.40
43346;DHT22;28937;51.160;4.146;2023-01-26T01:09:22;6.90;95.40
43346;DHT22;28937;51.160;4.146;2023-01-26T01:11:48;7.00;95.50
43346;DHT22;28937;51.160;4.146;2023-01-26T01:14:14;6.90;95.40
43346;DHT22;28937;51.160;4.146;2023-01-26T01:16:41;6.90;95.40
43346;DHT22;28937;51.160;4.146;2023-01-26T01:19:07;6.90;95.60
43346;DHT22;28937;51.160;4.146;2023-01-26T01:21:33;6.90;95.50
43346;DHT22;28937;51.160;4.146;2023-01-26T01:23:59;6.90;95.40
43346;DHT22;28937;51.160;4.146;2023-01-26T01:26:25;7.00;95.40
43346;DHT22;28937;51.160;4.146;2023-01-26T01:28:54;6.90;95.40
43346;DHT22;28937;51.160;4.146;2023-01-26T01:31:20;6.90;95.40
43346;DHT22;28937;51.160;4.146;2023-01-26T01:33:46;6.90;95.50
43346;DHT22;28937;51.160;4.146;2023-01-26T01:36:13;6.80;95.50
43346;DHT22;28937;51.160;4.146;2023-01-26T01:38:40;6.90;95.50
43346;DHT22;28937;51.160;4.146;2023-01-26T01:41:06;6.90;95.50
43346;DHT22;28937;51.160;4.146;2023-01-26T01:43:33;6.90;95.50
43346;DHT22;28937;51.160;4.146;2023-01-26T01:46:29;6.90;95.50
43346;DHT22;28937;51.160;4.146;2023-01-26T01:48:58;6.90;95.30
43346;DHT22;28937;51.160;4.146;2023-01-26T01:51:32;7.00;95.30
43346;DHT22;28937;51.160;4.146;2023-01-26T01:54:02;7.00;95.50
43346;DHT22;28937;51.160;4.146;2023-01-26T01:56:31;6.90;95.50
43346;DHT22;28937;51.160;4.146;2023-01-26T01:58:59;7.00;95.50
43346;DHT22;28937;51.160;4.146;2023-01-26T02:01:25;6.90;95.40
43346;DHT22;28937;51.160;4.146;2023-01-26T02:03:56;6.90;95.50
43346;DHT22;28937;51.160;4.146;2023-01-26T02:06:28;6.90;95.50
43346;DHT22;28937;51.160;4.146;2023-01-26T02:08:56;6.90;95.50
43346;DHT22;28937;51.160;4.146;2023-01-26T02:11:27;6.90;95.50
43346;DHT22;28937;51.160;4.146;2023-01-26T02:13:55;6.90;95.60
43346;DHT22;28937;51.160;4.146;2023-01-26T02:16:22;7.00;95.50
43346;DHT22;28937;51.160;4.146;2023-01-26T02:18:47;7.00;95.50
43346;DHT22;28937;51.160;4.146;2023-01-26T02:21:16;6.90;95.40
43346;DHT22;28937;51.160;4.146;2023-01-26T02:26:13;6.90;95.80
43346;DHT22;28937;51.160;4.146;2023-01-26T02:28:40;6.90;95.60
43346;DHT22;28937;51.160;4.146;2023-01-26T02:31:07;7.00;95.60
43346;DHT22;28937;51.160;4.146;2023-01-26T02:33:33;7.00;95.50
43346;DHT22;28937;51.160;4.146;2023-01-26T02:35:59;7.00;95.60
43346;DHT22;28937;51.160;4.146;2023-01-26T02:38:32;7.00;95.50
43346;DHT22;28937;51.160;4.146;2023-01-26T02:41:04;6.90;95.50
43346;DHT22;28937;51.160;4.146;2023-01-26T02:43:31;6.90;95.50
43346;DHT22;28937;51.160;4.146;2023-01-26T02:45:57;6.90;95.50
43346;DHT22;28937;51.160;4.146;2023-01-26T02:48:22;7.00;95.50
43346;DHT22;28937;51.160;4.146;2023-01-26T02:51:07;7.00;95.60
43346;DHT22;28937;51.160;4.146;2023-01-26T02:53:32;7.00;95.60
43346;DHT22;28937;51.160;4.146;2023-01-26T02:55:58;7.00;95.60
43346;DHT22;28937;51.160;4.146;2023-01-26T02:58:24;7.00;95.60
43346;DHT22;28937;51.160;4.146;2023-01-26T03:00:49;7.00;95.70
43346;DHT22;28937;51.160;4.146;2023-01-26T03:03:18;6.90;95.70
43346;DHT22;28937;51.160;4.146;2023-01-26T03:05:45;6.90;95.80
43346;DHT22;28937;51.160;4.146;2023-01-26T03:08:10;7.00;95.70
43346;DHT22;28937;51.160;4.146;2023-01-26T03:10:36;6.90;95.70
43346;DHT22;28937;51.160;4.146;2023-01-26T03:13:03;6.90;95.70
43346;DHT22;28937;51.160;4.146;2023-01-26T03:15:28;6.90;95.70
43346;DHT22;28937;51.160;4.146;2023-01-26T03:18:12;6.90;95.80
43346;DHT22;28937;51.160;4.146;2023-01-26T03:20:59;6.90;95.80
43346;DHT22;28937;51.160;4.146;2023-01-26T03:23:43;6.90;95.80
43346;DHT22;28937;51.160;4.146;2023-01-26T03:26:28;6.90;95.80
43346;DHT22;28937;51.160;4.146;2023-01-26T03:29:12;6.90;95.90
43346;DHT22;28937;51.160;4.146;2023-01-26T03:31:37;6.90;95.90
43346;DHT22;28937;51.160;4.146;2023-01-26T03:34:03;6.80;96.00
43346;DHT22;28937;51.160;4.146;2023-01-26T03:36:28;6.90;96.00
43346;DHT22;28937;51.160;4.146;2023-01-26T03:38:54;6.80;96.00
43346;DHT22;28937;51.160;4.146;2023-01-26T03:41:20;6.90;96.30
43346;DHT22;28937;51.160;4.146;2023-01-26T03:44:04;6.90;96.10
43346;DHT22;28937;51.160;4.146;2023-01-26T03:46:48;6.90;96.00
43346;DHT22;28937;51.160;4.146;2023-01-26T03:49:32;6.90;96.00
43346;DHT22;28937;51.160;4.146;2023-01-26T03:52:16;6.90;96.10
43346;DHT22;28937;51.160;4.146;2023-01-26T03:55:00;6.90;96.10
43346;DHT22;28937;51.160;4.146;2023-01-26T03:57:44;6.80;96.10
43346;DHT22;28937;51.160;4.146;2023-01-26T04:00:10;6.90;96.10
43346;DHT22;28937;51.160;4.146;2023-01-26T04:02:37;6.90;96.10
43346;DHT22;28937;51.160;4.146;2023-01-26T04:05:21;6.90;96.20
43346;DHT22;28937;51.160;4.146;2023-01-26T04:08:05;6.80;96.40
43346;DHT22;28937;51.160;4.146;2023-01-26T04:10:53;6.80;96.40
43346;DHT22;28937;51.160;4.146;2023-01-26T04:13:20;6.80;96.30
43346;DHT22;28937;51.160;4.146;2023-01-26T04:16:06;6.80;96.30
43346;DHT22;28937;51.160;4.146;2023-01-26T04:18:50;6.90;96.40
43346;DHT22;28937;51.160;4.146;2023-01-26T04:21:34;6.80;96.30
43346;DHT22;28937;51.160;4.146;2023-01-26T04:24:03;6.80;96.40
43346;DHT22;28937;51.160;4.146;2023-01-26T04:26:38;6.90;96.40
43346;DHT22;28937;51.160;4.146;2023-01-26T04:29:06;6.90;96.30
43346;DHT22;28937;51.160;4.146;2023-01-26T04:31:32;6.80;96.30
43346;DHT22;28937;51.160;4.146;2023-01-26T04:33:59;6.80;96.30
43346;DHT22;28937;51.160;4.146;2023-01-26T04:36:25;6.80;96.30
43346;DHT22;28937;51.160;4.146;2023-01-26T04:38:50;6.80;96.30
43346;DHT22;28937;51.160;4.146;2023-01-26T04:41:16;6.80;96.40
43346;DHT22;28937;51.160;4.146;2023-01-26T04:43:42;6.90;96.40
43346;DHT22;28937;51.160;4.146;2023-01-26T04:46:08;6.90;96.50
43346;DHT22;28937;51.160;4.146;2023-01-26T04:48:34;6.90;96.50
43346;DHT22;28937;51.160;4.146;2023-01-26T04:51:03;6.90;96.50
43346;DHT22;28937;51.160;4.146;2023-01-26T04:53:30;6.90;96.50
43346;DHT22;28937;51.160;4.146;2023-01-26T04:55:56;6.90;96.50
43346;DHT22;28937;51.160;4.146;2023-01-26T04:58:22;6.90;96.60
43346;DHT22;28937;51.160;4.146;2023-01-26T05:00:55;6.90;96.50
43346;DHT22;28937;51.160;4.146;2023-01-26T05:03:22;6.90;96.40
43346;DHT22;28937;51.160;4.146;2023-01-26T05:05:53;6.80;96.50
43346;DHT22;28937;51.160;4.146;2023-01-26T05:08:20;6.90;96.50
43346;DHT22;28937;51.160;4.146;2023-01-26T05:10:46;6.80;96.60
43346;DHT22;28937;51.160;4.146;2023-01-26T05:13:12;6.90;96.60
43346;DHT22;28937;51.160;4.146;2023-01-26T05:15:38;6.90;96.60
43346;DHT22;28937;51.160;4.146;2023-01-26T05:18:05;6.90;96.60
43346;DHT22;28937;51.160;4.146;2023-01-26T05:20:31;6.90;96.70
43346;DHT22;28937;51.160;4.146;2023-01-26T05:22:56;6.90;96.70
43346;DHT22;28937;51.160;4.146;2023-01-26T05:25:22;6.90;96.60
43346;DHT22;28937;51.160;4.146;2023-01-26T05:27:48;6.90;96.70
43346;DHT22;28937;51.160;4.146;2023-01-26T05:30:14;6.90;96.80
43346;DHT22;28937;51.160;4.146;2023-01-26T05:32:40;6.90;96.70
43346;DHT22;28937;51.160;4.146;2023-01-26T05:35:07;6.90;96.80
43346;DHT22;28937;51.160;4.146;2023-01-26T05:37:33;6.90;96.70
43346;DHT22;28937;51.160;4.146;2023-01-26T05:39:59;6.90;96.60
43346;DHT22;28937;51.160;4.146;2023-01-26T05:42:26;6.90;96.60
43346;DHT22;28937;51.160;4.146;2023-01-26T05:44:51;6.90;96.70
43346;DHT22;28937;51.160;4.146;2023-01-26T05:47:17;6.90;96.70
43346;DHT22;28937;51.160;4.146;2023-01-26T05:49:42;7.00;96.50
43346;DHT22;28937;51.160;4.146;2023-01-26T05:52:13;6.90;95.90
43346;DHT22;28937;51.160;4.146;2023-01-26T05:54:39;6.90;96.10
43346;DHT22;28937;51.160;4.146;2023-01-26T05:57:04;6.90;95.80
43346;DHT22;28937;51.160;4.146;2023-01-26T05:59:30;6.90;96.00
43346;DHT22;28937;51.160;4.146;2023-01-26T06:01:56;6.80;96.30
43346;DHT22;28937;51.160;4.146;2023-01-26T06:04:22;6.80;96.20
43346;DHT22;28937;51.160;4.146;2023-01-26T06:06:48;6.90;96.20
43346;DHT22;28937;51.160;4.146;2023-01-26T06:09:14;6.90;96.20
43346;DHT22;28937;51.160;4.146;2023-01-26T06:11:39;6.90;96.40
43346;DHT22;28937;51.160;4.146;2023-01-26T06:14:05;6.90;96.20
43346;DHT22;28937;51.160;4.146;2023-01-26T06:16:30;6.90;96.30
43346;DHT22;28937;51.160;4.146;2023-01-26T06:18:56;6.80;96.20
43346;DHT22;28937;51.160;4.146;2023-01-26T06:21:21;6.90;96.30
43346;DHT22;28937;51.160;4.146;2023-01-26T06:23:47;6.80;96.50
43346;DHT22;28937;51.160;4.146;2023-01-26T06:26:12;6.80;96.40
43346;DHT22;28937;51.160;4.146;2023-01-26T06:28:39;6.90;96.40
43346;DHT22;28937;51.160;4.146;2023-01-26T06:31:07;6.90;96.40
43346;DHT22;28937;51.160;4.146;2023-01-26T06:33:34;6.90;96.40
43346;DHT22;28937;51.160;4.146;2023-01-26T06:36:05;6.80;96.70
43346;DHT22;28937;51.160;4.146;2023-01-26T06:38:32;6.90;96.70
43346;DHT22;28937;51.160;4.146;2023-01-26T06:40:59;6.90;96.50
43346;DHT22;28937;51.160;4.146;2023-01-26T06:43:28;6.90;96.80
43346;DHT22;28937;51.160;4.146;2023-01-26T06:45:55;6.90;96.90
43346;DHT22;28937;51.160;4.146;2023-01-26T06:48:21;6.90;96.90
43346;DHT22;28937;51.160;4.146;2023-01-26T06:50:46;7.00;96.90
43346;DHT22;28937;51.160;4.146;2023-01-26T06:53:28;6.90;96.90
43346;DHT22;28937;51.160;4.146;2023-01-26T06:55:53;6.90;97.00
43346;DHT22;28937;51.160;4.146;2023-01-26T06:58:19;6.90;97.20
43346;DHT22;28937;51.160;4.146;2023-01-26T07:00:44;6.90;97.20
43346;DHT22;28937;51.160;4.146;2023-01-26T07:03:10;6.90;97.30
43346;DHT22;28937;51.160;4.146;2023-01-26T07:05:36;6.90;97.40
43346;DHT22;28937;51.160;4.146;2023-01-26T07:08:01;7.00;97.20
43346;DHT22;28937;51.160;4.146;2023-01-26T07:10:29;7.10;97.00
43346;DHT22;28937;51.160;4.146;2023-01-26T07:12:55;7.20;96.80
43346;DHT22;28937;51.160;4.146;2023-01-26T07:15:20;6.80;97.60
43346;DHT22;28937;51.160;4.146;2023-01-26T07:17:46;6.80;98.10
43346;DHT22;28937;51.160;4.146;2023-01-26T07:20:11;6.80;98.10
43346;DHT22;28937;51.160;4.146;2023-01-26T07:22:37;6.80;98.00
43346;DHT22;28937;51.160;4.146;2023-01-26T07:25:03;7.00;97.70
43346;DHT22;28937;51.160;4.146;2023-01-26T07:27:28;7.00;97.50
43346;DHT22;28937;51.160;4.146;2023-01-26T07:29:54;6.80;98.10
43346;DHT22;28937;51.160;4.146;2023-01-26T07:32:19;6.80;98.20
43346;DHT22;28937;51.160;4.146;2023-01-26T07:34:45;7.00;97.80
43346;DHT22;28937;51.160;4.146;2023-01-26T07:37:10;7.10;97.60
43346;DHT22;28937;51.160;4.146;2023-01-26T07:39:36;7.10;97.80
43346;DHT22;28937;51.160;4.146;2023-01-26T07:42:01;7.00;98.10
43346;DHT22;28937;51.160;4.146;2023-01-26T07:44:27;7.20;97.90
43346;DHT22;28937;51.160;4.146;2023-01-26T07:46:53;7.10;98.40
43346;DHT22;28937;51.160;4.146;2023-01-26T07:49:18;7.10;98.90
43346;DHT22;28937;51.160;4.146;2023-01-26T07:51:44;7.20;98.80
43346;DHT22;28937;51.160;4.146;2023-01-26T07:54:10;7.20;98.50
43346;DHT22;28937;51.160;4.146;2023-01-26T07:56:37;7.20;98.20
43346;DHT22;28937;51.160;4.146;2023-01-26T07:59:03;7.20;98.10
43346;DHT22;28937;51.160;4.146;2023-01-26T08:01:29;7.20;98.10
43346;DHT22;28937;51.160;4.146;2023-01-26T08:03:55;7.30;97.90
43346;DHT22;28937;51.160;4.146;2023-01-26T08:06:21;7.20;97.90
43346;DHT22;28937;51.160;4.146;2023-01-26T08:08:47;7.30;97.90
43346;DHT22;28937;51.160;4.146;2023-01-26T08:11:18;7.30;97.90
43346;DHT22;28937;51.160;4.146;2023-01-26T08:13:44;7.30;97.90
43346;DHT22;28937;51.160;4.146;2023-01-26T08:16:10;7.30;98.00
43346;DHT22;28937;51.160;4.146;2023-01-26T08:18:43;7.30;98.00
43346;DHT22;28937;51.160;4.146;2023-01-26T08:21:09;7.30;98.00
43346;DHT22;28937;51.160;4.146;2023-01-26T08:23:35;7.20;98.80
43346;DHT22;28937;51.160;4.146;2023-01-26T08:26:03;7.30;98.40
43346;DHT22;28937;51.160;4.146;2023-01-26T08:28:29;7.30;98.30
43346;DHT22;28937;51.160;4.146;2023-01-26T08:30:54;7.30;98.30
43346;DHT22;28937;51.160;4.146;2023-01-26T08:33:21;7.30;98.40
43346;DHT22;28937;51.160;4.146;2023-01-26T08:35:46;7.40;98.40
43346;DHT22;28937;51.160;4.146;2023-01-26T08:38:12;7.30;98.40
43346;DHT22;28937;51.160;4.146;2023-01-26T08:40:37;7.30;98.40
43346;DHT22;28937;51.160;4.146;2023-01-26T08:43:03;7.30;98.60
43346;DHT22;28937;51.160;4.146;2023-01-26T08:45:29;7.30;98.70
43346;DHT22;28937;51.160;4.146;2023-01-26T08:47:55;7.40;98.70
43346;DHT22;28937;51.160;4.146;2023-01-26T08:50:20;7.40;98.70
43346;DHT22;28937;51.160;4.146;2023-01-26T08:52:46;7.40;98.80
43346;DHT22;28937;51.160;4.146;2023-01-26T08:55:11;7.40;98.80
43346;DHT22;28937;51.160;4.146;2023-01-26T08:57:37;7.40;98.80
43346;DHT22;28937;51.160;4.146;2023-01-26T09:00:03;7.40;98.80
43346;DHT22;28937;51.160;4.146;2023-01-26T09:02:29;7.40;98.90
43346;DHT22;28937;51.160;4.146;2023-01-26T09:04:54;7.50;99.00
43346;DHT22;28937;51.160;4.146;2023-01-26T09:07:20;7.50;99.00
43346;DHT22;28937;51.160;4.146;2023-01-26T09:09:45;7.50;99.10
43346;DHT22;28937;51.160;4.146;2023-01-26T09:12:11;7.50;99.20
43346;DHT22;28937;51.160;4.146;2023-01-26T09:14:36;7.50;99.30
43346;DHT22;28937;51.160;4.146;2023-01-26T09:17:02;7.50;99.30
43346;DHT22;28937;51.160;4.146;2023-01-26T09:19:27;7.50;99.50
43346;DHT22;28937;51.160;4.146;2023-01-26T09:21:53;7.50;99.60
43346;DHT22;28937;51.160;4.146;2023-01-26T09:24:20;7.50;99.80
43346;DHT22;28937;51.160;4.146;2023-01-26T09:26:46;7.50;99.90
43346;DHT22;28937;51.160;4.146;2023-01-26T09:29:11;7.50;99.90
43346;DHT22;28937;51.160;4.146;2023-01-26T09:31:37;7.50;99.90
43346;DHT22;28937;51.160;4.146;2023-01-26T09:34:02;7.50;99.90
43346;DHT22;28937;51.160;4.146;2023-01-26T09:36:28;7.50;99.90
43346;DHT22;28937;51.160;4.146;2023-01-26T09:38:53;7.60;99.90
43346;DHT22;28937;51.160;4.146;2023-01-26T09:41:36;7.60;99.90
43346;DHT22;28937;51.160;4.146;2023-01-26T09:44:11;7.60;99.90
43346;DHT22;28937;51.160;4.146;2023-01-26T09:54:52;7.70;99.90
43346;DHT22;28937;51.160;4.146;2023-01-26T09:57:41;7.70;99.90
43346;DHT22;28937;51.160;4.146;2023-01-26T10:00:25;7.80;99.90
43346;DHT22;28937;51.160;4.146;2023-01-26T10:03:19;7.90;99.90
43346;DHT22;28937;51.160;4.146;2023-01-26T10:05:52;7.90;99.90
43346;DHT22;28937;51.160;4.146;2023-01-26T10:08:20;8.00;99.90
43346;DHT22;28937;51.160;4.146;2023-01-26T10:10:53;8.00;99.90
43346;DHT22;28937;51.160;4.146;2023-01-26T10:13:21;8.00;99.90
43346;DHT22;28937;51.160;4.146;2023-01-26T10:15:52;8.10;99.90
43346;DHT22;28937;51.160;4.146;2023-01-26T10:18:25;8.10;99.90
43346;DHT22;28937;51.160;4.146;2023-01-26T10:20:54;8.20;99.90
43346;DHT22;28937;51.160;4.146;2023-01-26T10:23:30;8.20;99.90
43346;DHT22;28937;51.160;4.146;2023-01-26T10:26:12;8.30;99.90
43346;DHT22;28937;51.160;4.146;2023-01-26T10:28:39;8.30;99.90
43346;DHT22;28937;51.160;4.146;2023-01-26T10:31:13;8.30;99.90
43346;DHT22;28937;51.160;4.146;2023-01-26T10:33:51;8.30;99.90
43346;DHT22;28937;51.160;4.146;2023-01-26T10:36:17;8.40;99.90
43346;DHT22;28937;51.160;4.146;2023-01-26T10:38:44;8.30;99.90
43346;DHT22;28937;51.160;4.146;2023-01-26T10:43:40;8.40;99.90
43346;DHT22;28937;51.160;4.146;2023-01-26T10:48:55;8.50;99.90
43346;DHT22;28937;51.160;4.146;2023-01-26T10:51:30;8.40;99.90
43346;DHT22;28937;51.160;4.146;2023-01-26T10:54:22;8.50;99.90
43346;DHT22;28937;51.160;4.146;2023-01-26T10:56:52;8.50;99.90
43346;DHT22;28937;51.160;4.146;2023-01-26T10:59:26;8.50;99.90
43346;DHT22;28937;51.160;4.146;2023-01-26T11:04:38;8.60;99.90
43346;DHT22;28937;51.160;4.146;2023-01-26T11:07:25;8.60;99.90
43346;DHT22;28937;51.160;4.146;2023-01-26T11:09:52;8.70;99.90
43346;DHT22;28937;51.160;4.146;2023-01-26T11:12:19;8.60;99.90
43346;DHT22;28937;51.160;4.146;2023-01-26T11:15:01;8.70;99.90
43346;DHT22;28937;51.160;4.146;2023-01-26T11:17:37;8.70;99.90
43346;DHT22;28937;51.160;4.146;2023-01-26T11:34:11;8.80;99.90
43346;DHT22;28937;51.160;4.146;2023-01-26T11:42:17;9.00;99.90
43346;DHT22;28937;51.160;4.146;2023-01-26T11:53:35;9.10;99.90
43346;DHT22;28937;51.160;4.146;2023-01-26T11:56:09;9.10;99.90
43346;DHT22;28937;51.160;4.146;2023-01-26T11:58:43;9.10;99.90
43346;DHT22;28937;51.160;4.146;2023-01-26T12:03:49;9.10;99.90
43346;DHT22;28937;51.160;4.146;2023-01-26T12:11:22;9.30;99.90
43346;DHT22;28937;51.160;4.146;2023-01-26T12:16:42;9.40;99.90
43346;DHT22;28937;51.160;4.146;2023-01-26T12:19:25;9.30;99.90
43346;DHT22;28937;51.160;4.146;2023-01-26T12:21:58;9.40;99.90
43346;DHT22;28937;51.160;4.146;2023-01-26T12:24:34;9.40;99.90
43346;DHT22;28937;51.160;4.146;2023-01-26T12:27:03;9.50;99.70
43346;DHT22;28937;51.160;4.146;2023-01-26T12:30:02;9.50;99.60
43346;DHT22;28937;51.160;4.146;2023-01-26T12:32:28;9.50;99.50
43346;DHT22;28937;51.160;4.146;2023-01-26T12:34:54;9.50;99.30
43346;DHT22;28937;51.160;4.146;2023-01-26T12:43:05;9.60;99.60
43346;DHT22;28937;51.160;4.146;2023-01-26T12:45:38;9.70;99.10
43346;DHT22;28937;51.160;4.146;2023-01-26T12:51:31;9.70;98.50
43346;DHT22;28937;51.160;4.146;2023-01-26T12:54:13;9.80;98.10
43346;DHT22;28937;51.160;4.146;2023-01-26T12:56:45;9.80;97.60
43346;DHT22;28937;51.160;4.146;2023-01-26T12:59:44;9.80;96.90
43346;DHT22;28937;51.160;4.146;2023-01-26T13:02:14;9.80;97.60
43346;DHT22;28937;51.160;4.146;2023-01-26T13:04:43;9.70;98.10
43346;DHT22;28937;51.160;4.146;2023-01-26T13:07:38;9.80;97.80
43346;DHT22;28937;51.160;4.146;2023-01-26T13:12:53;9.90;96.80
43346;DHT22;28937;51.160;4.146;2023-01-26T13:15:21;10.00;96.50
43346;DHT22;28937;51.160;4.146;2023-01-26T13:20:44;9.90;97.40
43346;DHT22;28937;51.160;4.146;2023-01-26T13:26:15;10.30;98.40
43346;DHT22;28937;51.160;4.146;2023-01-26T13:28:43;10.40;98.10
43346;DHT22;28937;51.160;4.146;2023-01-26T13:31:09;10.50;97.90
43346;DHT22;28937;51.160;4.146;2023-01-26T13:33:35;10.60;97.90
43346;DHT22;28937;51.160;4.146;2023-01-26T13:36:12;10.60;97.90
43346;DHT22;28937;51.160;4.146;2023-01-26T13:38:46;10.80;97.70
43346;DHT22;28937;51.160;4.146;2023-01-26T13:41:18;10.80;97.60
43346;DHT22;28937;51.160;4.146;2023-01-26T13:43:51;10.90;98.00
43346;DHT22;28937;51.160;4.146;2023-01-26T13:48:55;10.90;97.50
43346;DHT22;28937;51.160;4.146;2023-01-26T13:51:29;10.90;97.60
43346;DHT22;28937;51.160;4.146;2023-01-26T13:54:12;10.90;97.10
43346;DHT22;28937;51.160;4.146;2023-01-26T13:57:03;10.90;97.50
43346;DHT22;28937;51.160;4.146;2023-01-26T13:59:28;10.80;97.20
43346;DHT22;28937;51.160;4.146;2023-01-26T14:01:55;10.70;97.30
43346;DHT22;28937;51.160;4.146;2023-01-26T14:04:30;10.70;97.30
43346;DHT22;28937;51.160;4.146;2023-01-26T14:07:06;10.70;96.80
43346;DHT22;28937;51.160;4.146;2023-01-26T14:09:44;10.60;97.30
43346;DHT22;28937;51.160;4.146;2023-01-26T14:12:20;10.70;97.20
43346;DHT22;28937;51.160;4.146;2023-01-26T14:14:51;10.70;97.40
43346;DHT22;28937;51.160;4.146;2023-01-26T14:17:35;10.70;97.70
43346;DHT22;28937;51.160;4.146;2023-01-26T14:20:05;10.70;97.10
43346;DHT22;28937;51.160;4.146;2023-01-26T14:22:41;10.70;97.40
43346;DHT22;28937;51.160;4.146;2023-01-26T14:25:09;10.70;97.30
43346;DHT22;28937;51.160;4.146;2023-01-26T14:27:40;10.70;97.10
43346;DHT22;28937;51.160;4.146;2023-01-26T14:35:30;10.70;96.20
43346;DHT22;28937;51.160;4.146;2023-01-26T14:40:51;10.70;96.00
43346;DHT22;28937;51.160;4.146;2023-01-26T14:43:17;10.80;96.70
43346;DHT22;28937;51.160;4.146;2023-01-26T14:48:13;10.70;96.30
43346;DHT22;28937;51.160;4.146;2023-01-26T14:50:43;10.80;96.10
43346;DHT22;28937;51.160;4.146;2023-01-26T14:53:18;10.80;96.40
43346;DHT22;28937;51.160;4.146;2023-01-26T14:55:45;10.80;95.80
43346;DHT22;28937;51.160;4.146;2023-01-26T15:00:49;10.80;95.10
43346;DHT22;28937;51.160;4.146;2023-01-26T15:03:35;10.80;95.10
43346;DHT22;28937;51.160;4.146;2023-01-26T15:09:01;10.80;95.00
43346;DHT22;28937;51.160;4.146;2023-01-26T15:11:37;10.80;94.90
43346;DHT22;28937;51.160;4.146;2023-01-26T15:16:59;10.90;94.80
43346;DHT22;28937;51.160;4.146;2023-01-26T15:19:31;10.90;94.70
43346;DHT22;28937;51.160;4.146;2023-01-26T15:21:57;10.80;94.70
43346;DHT22;28937;51.160;4.146;2023-01-26T15:24:22;10.80;94.80
43346;DHT22;28937;51.160;4.146;2023-01-26T15:26:48;10.90;93.70
43346;DHT22;28937;51.160;4.146;2023-01-26T15:29:27;10.80;93.40
43346;DHT22;28937;51.160;4.146;2023-01-26T15:31:56;10.90;92.90
43346;DHT22;28937;51.160;4.146;2023-01-26T15:34:40;10.90;93.80
43346;DHT22;28937;51.160;4.146;2023-01-26T15:37:31;11.00;93.50
43346;DHT22;28937;51.160;4.146;2023-01-26T15:39:58;11.00;93.40
43346;DHT22;28937;51.160;4.146;2023-01-26T15:42:25;11.00;93.40
43346;DHT22;28937;51.160;4.146;2023-01-26T15:44:56;11.10;95.20
43346;DHT22;28937;51.160;4.146;2023-01-26T15:47:21;11.00;95.40
43346;DHT22;28937;51.160;4.146;2023-01-26T15:49:47;11.10;95.50
43346;DHT22;28937;51.160;4.146;2023-01-26T15:52:18;11.00;95.80
43346;DHT22;28937;51.160;4.146;2023-01-26T15:54:44;11.00;95.80
43346;DHT22;28937;51.160;4.146;2023-01-26T15:57:11;11.00;95.90
43346;DHT22;28937;51.160;4.146;2023-01-26T15:59:37;11.10;96.10
43346;DHT22;28937;51.160;4.146;2023-01-26T16:02:03;11.00;96.40
43346;DHT22;28937;51.160;4.146;2023-01-26T16:04:28;11.00;96.70
43346;DHT22;28937;51.160;4.146;2023-01-26T16:06:54;11.00;96.40
43346;DHT22;28937;51.160;4.146;2023-01-26T16:09:20;11.00;96.30
43346;DHT22;28937;51.160;4.146;2023-01-26T16:11:48;11.00;96.60
43346;DHT22;28937;51.160;4.146;2023-01-26T16:14:15;11.00;96.40
43346;DHT22;28937;51.160;4.146;2023-01-26T16:16:40;11.00;96.40
43346;DHT22;28937;51.160;4.146;2023-01-26T16:19:06;11.00;95.90
43346;DHT22;28937;51.160;4.146;2023-01-26T16:21:34;11.00;96.80
43346;DHT22;28937;51.160;4.146;2023-01-26T16:24:01;11.10;96.00
43346;DHT22;28937;51.160;4.146;2023-01-26T16:26:27;11.10;95.50
43346;DHT22;28937;51.160;4.146;2023-01-26T16:28:53;11.10;95.30
43346;DHT22;28937;51.160;4.146;2023-01-26T16:31:23;11.10;95.40
43346;DHT22;28937;51.160;4.146;2023-01-26T16:33:49;11.10;95.30
43346;DHT22;28937;51.160;4.146;2023-01-26T16:36:16;11.10;95.50
43346;DHT22;28937;51.160;4.146;2023-01-26T16:38:43;11.10;95.70
43346;DHT22;28937;51.160;4.146;2023-01-26T16:41:23;11.10;95.80
43346;DHT22;28937;51.160;4.146;2023-01-26T16:43:52;11.10;95.80
43346;DHT22;28937;51.160;4.146;2023-01-26T16:46:18;11.00;96.20
43346;DHT22;28937;51.160;4.146;2023-01-26T16:48:43;11.00;96.40
43346;DHT22;28937;51.160;4.146;2023-01-26T16:51:31;11.10;96.10
43346;DHT22;28937;51.160;4.146;2023-01-26T16:54:11;11.10;96.30
43346;DHT22;28937;51.160;4.146;2023-01-26T16:56:39;11.10;96.40
43346;DHT22;28937;51.160;4.146;2023-01-26T16:59:05;11.00;96.40
43346;DHT22;28937;51.160;4.146;2023-01-26T17:01:37;11.10;96.50
43346;DHT22;28937;51.160;4.146;2023-01-26T17:04:03;11.10;96.50
43346;DHT22;28937;51.160;4.146;2023-01-26T17:06:30;11.10;96.50
43346;DHT22;28937;51.160;4.146;2023-01-26T17:08:56;11.10;96.50
43346;DHT22;28937;51.160;4.146;2023-01-26T17:11:24;11.10;96.50
43346;DHT22;28937;51.160;4.146;2023-01-26T17:13:50;11.10;96.60
43346;DHT22;28937;51.160;4.146;2023-01-26T17:16:18;11.10;96.50
43346;DHT22;28937;51.160;4.146;2023-01-26T17:18:44;11.00;96.70
43346;DHT22;28937;51.160;4.146;2023-01-26T17:21:11;11.10;96.60
43346;DHT22;28937;51.160;4.146;2023-01-26T17:23:38;11.10;96.50
43346;DHT22;28937;51.160;4.146;2023-01-26T17:26:12;11.10;96.40
43346;DHT22;28937;51.160;4.146;2023-01-26T17:28:39;11.10;96.40
43346;DHT22;28937;51.160;4.146;2023-01-26T17:31:10;11.10;96.80
43346;DHT22;28937;51.160;4.146;2023-01-26T17:33:37;11.10;96.20
43346;DHT22;28937;51.160;4.146;2023-01-26T17:36:05;11.10;95.90